Bookmark and Share
Track history (hours):
 

M/T Havva Ana

Last reported at 2014-Apr-17 11:13 UTC. Time now 2014-Apr-19 17:08 UTC.
Position N 36°33' E 014°08'.

Length 124 m; draft 7.1 m.

Type: Tanker. MMSI: 538003488.

NotesDate/timePositionNaut miles runAvg speedWind from/ knotsBaromVisibWave heightAir tempDewpointWater temp
2014-Apr-17 11:13N 36°33' E 014°08'1313.0
2014-Apr-17 10:14N 36°38' E 013°53'44511.8
2014-Apr-15 20:30N 37°06' E 004°38'3812.4
2014-Apr-15 17:26N 37°03' E 003°50'48 9.9
2014-Apr-15 12:32N 36°57' E 002°50'1313.6
2014-Apr-15 11:34N 36°56' E 002°33'38510.4
2014-Apr-13 22:33N 35°54' W 005°18'5 4.6
2014-Apr-13 21:33N 35°58' W 005°20'1211.4
2014-Apr-13 20:31N 36°10' W 005°24'1 0.0
2014-Apr-12 22:04N 36°11' W 005°24'0 0.0
2014-Apr-12 00:34N 36°10' W 005°23'1 0.9
2014-Apr-11 23:32N 36°10' W 005°23'0 0.0
2014-Apr-11 22:32N 36°10' W 005°23'0 0.1
2014-Apr-11 21:32N 36°10' W 005°23'0 0.0
2014-Apr-11 20:29N 36°10' W 005°23'0 0.0
2014-Apr-11 19:32N 36°10' W 005°23'0 0.0
2014-Apr-11 18:32N 36°10' W 005°23'0 0.1
2014-Apr-11 17:23N 36°10' W 005°23'0 0.1
2014-Apr-11 16:32N 36°10' W 005°23'0 0.0
2014-Apr-11 13:08N 36°10' W 005°23'0 0.0
2014-Apr-11 12:29N 36°10' W 005°23'0 0.1
2014-Apr-11 11:23N 36°10' W 005°23'0 0.0
2014-Apr-11 10:32N 36°10' W 005°23'0 0.1
2014-Apr-11 09:32N 36°10' W 005°23'0 0.0
2014-Apr-11 08:32N 36°10' W 005°23'0 0.0
2014-Apr-11 07:29N 36°10' W 005°23'0 0.1
2014-Apr-11 06:32N 36°10' W 005°23'0 0.1
2014-Apr-11 05:29N 36°10' W 005°23'0 0.1
2014-Apr-11 04:32N 36°10' W 005°23'0 0.1
2014-Apr-11 03:32N 36°10' W 005°23'0 0.0
2014-Apr-11 02:32N 36°10' W 005°23'0 0.0
2014-Apr-11 01:14N 36°10' W 005°23'0 0.0
2014-Apr-10 23:23N 36°10' W 005°23'0 0.0
2014-Apr-10 21:29N 36°10' W 005°23'0 0.1
2014-Apr-10 20:32N 36°10' W 005°23'0 0.0
2014-Apr-10 19:32N 36°10' W 005°23'0 0.0
2014-Apr-10 18:23N 36°10' W 005°23'0 0.0
2014-Apr-10 17:29N 36°10' W 005°23'0 0.0
2014-Apr-10 16:29N 36°10' W 005°23'0 0.1
2014-Apr-10 15:33N 36°10' W 005°23'0 0.0
2014-Apr-10 14:23N 36°10' W 005°23'2 2.3
2014-Apr-10 13:33N 36°08' W 005°23'7 7.5
2014-Apr-10 12:34N 36°05' W 005°15'  
2014-Apr-08 05:30N 37°26' E 009°06'2511.7
2014-Apr-08 03:22N 37°33' E 009°36'911.5
2014-Apr-08 02:33N 37°35' E 009°47'1211.5
2014-Apr-08 01:34N 37°39' E 010°01'1111.2
2014-Apr-08 00:34N 37°38' E 010°15'1110.8
2014-Apr-07 23:33N 37°36' E 010°29'1110.8
2014-Apr-07 22:34N 37°34' E 010°42'1211.5
2014-Apr-07 21:33N 37°31' E 010°56'1212.2
2014-Apr-07 20:33N 37°27' E 011°11'1712.2
2014-Apr-07 19:09N 37°21' E 011°31'2612.3
2014-Apr-07 17:05N 37°14' E 012°02'3411.9
2014-Apr-07 14:15N 37°05' E 012°43'811.8
2014-Apr-07 13:33N 37°03' E 012°52'1212.0
2014-Apr-07 12:33N 36°60' E 013°07'1212.1
2014-Apr-07 11:33N 36°57' E 013°22'  

Dump ship's entire track history

sailing weather and tide predictions

M/T Havva Ana — V7RE3 — position and weather